sensor_id;sensor_type;location;lat;lon;timestamp;temperature;humidity
12847;DHT22;6492;48.128;8.320;2023-05-16T00:02:12;7.90;76.10
12847;DHT22;6492;48.128;8.320;2023-05-16T00:06:14;8.00;74.80
12847;DHT22;6492;48.128;8.320;2023-05-16T00:10:17;8.00;71.70
12847;DHT22;6492;48.128;8.320;2023-05-16T00:14:19;7.90;70.30
12847;DHT22;6492;48.128;8.320;2023-05-16T00:18:21;7.90;70.20
12847;DHT22;6492;48.128;8.320;2023-05-16T00:22:25;7.90;69.30
12847;DHT22;6492;48.128;8.320;2023-05-16T00:26:28;7.90;68.80
12847;DHT22;6492;48.128;8.320;2023-05-16T00:30:30;7.90;68.40
12847;DHT22;6492;48.128;8.320;2023-05-16T00:34:32;7.90;68.70
12847;DHT22;6492;48.128;8.320;2023-05-16T00:38:34;7.90;68.90
12847;DHT22;6492;48.128;8.320;2023-05-16T00:42:38;7.80;68.80
12847;DHT22;6492;48.128;8.320;2023-05-16T00:47:11;7.80;69.10
12847;DHT22;6492;48.128;8.320;2023-05-16T00:51:13;7.80;69.30
12847;DHT22;6492;48.128;8.320;2023-05-16T00:55:15;7.80;69.70
12847;DHT22;6492;48.128;8.320;2023-05-16T00:59:18;7.70;69.70
12847;DHT22;6492;48.128;8.320;2023-05-16T01:03:21;7.70;70.10
12847;DHT22;6492;48.128;8.320;2023-05-16T01:07:23;7.70;70.40
12847;DHT22;6492;48.128;8.320;2023-05-16T01:11:33;7.70;70.50
12847;DHT22;6492;48.128;8.320;2023-05-16T01:15:43;7.70;70.60
12847;DHT22;6492;48.128;8.320;2023-05-16T01:20:02;7.70;70.90
12847;DHT22;6492;48.128;8.320;2023-05-16T01:24:13;7.70;70.80
12847;DHT22;6492;48.128;8.320;2023-05-16T01:28:17;7.70;70.80
12847;DHT22;6492;48.128;8.320;2023-05-16T01:32:19;7.70;70.60
12847;DHT22;6492;48.128;8.320;2023-05-16T01:36:25;7.70;70.60
12847;DHT22;6492;48.128;8.320;2023-05-16T01:40:34;7.70;70.60
12847;DHT22;6492;48.128;8.320;2023-05-16T01:44:43;7.70;70.50
12847;DHT22;6492;48.128;8.320;2023-05-16T01:48:51;7.70;70.30
12847;DHT22;6492;48.128;8.320;2023-05-16T01:52:57;7.80;70.10
12847;DHT22;6492;48.128;8.320;2023-05-16T01:56:59;7.80;70.10
12847;DHT22;6492;48.128;8.320;2023-05-16T02:01:04;7.80;69.90
12847;DHT22;6492;48.128;8.320;2023-05-16T02:05:06;7.80;70.10
12847;DHT22;6492;48.128;8.320;2023-05-16T02:09:08;7.80;70.20
12847;DHT22;6492;48.128;8.320;2023-05-16T02:13:10;7.80;70.20
12847;DHT22;6492;48.128;8.320;2023-05-16T02:17:13;7.80;70.40
12847;DHT22;6492;48.128;8.320;2023-05-16T02:21:16;7.80;70.50
12847;DHT22;6492;48.128;8.320;2023-05-16T02:25:18;7.80;70.60
12847;DHT22;6492;48.128;8.320;2023-05-16T02:29:20;7.80;70.80
12847;DHT22;6492;48.128;8.320;2023-05-16T02:33:24;8.40;71.00
12847;DHT22;6492;48.128;8.320;2023-05-16T02:37:26;7.80;70.60
12847;DHT22;6492;48.128;8.320;2023-05-16T02:41:28;7.80;70.20
12847;DHT22;6492;48.128;8.320;2023-05-16T02:45:31;7.80;70.20
12847;DHT22;6492;48.128;8.320;2023-05-16T02:49:34;7.70;70.10
12847;DHT22;6492;48.128;8.320;2023-05-16T02:53:36;7.80;71.00
12847;DHT22;6492;48.128;8.320;2023-05-16T02:57:38;7.80;70.50
12847;DHT22;6492;48.128;8.320;2023-05-16T03:01:40;7.80;70.40
12847;DHT22;6492;48.128;8.320;2023-05-16T03:05:43;7.70;70.40
12847;DHT22;6492;48.128;8.320;2023-05-16T03:09:45;7.70;70.30
12847;DHT22;6492;48.128;8.320;2023-05-16T03:13:47;7.70;70.40
12847;DHT22;6492;48.128;8.320;2023-05-16T03:17:49;7.70;70.60
12847;DHT22;6492;48.128;8.320;2023-05-16T03:21:52;7.70;70.90
12847;DHT22;6492;48.128;8.320;2023-05-16T03:25:54;7.70;71.20
12847;DHT22;6492;48.128;8.320;2023-05-16T03:29:56;7.60;71.20
12847;DHT22;6492;48.128;8.320;2023-05-16T03:33:58;7.70;71.50
12847;DHT22;6492;48.128;8.320;2023-05-16T03:38:02;7.70;71.90
12847;DHT22;6492;48.128;8.320;2023-05-16T03:42:04;7.70;72.00
12847;DHT22;6492;48.128;8.320;2023-05-16T03:46:07;7.80;72.20
12847;DHT22;6492;48.128;8.320;2023-05-16T03:50:09;7.80;72.10
12847;DHT22;6492;48.128;8.320;2023-05-16T03:54:12;7.80;72.20
12847;DHT22;6492;48.128;8.320;2023-05-16T03:58:14;7.80;72.20
12847;DHT22;6492;48.128;8.320;2023-05-16T04:02:16;7.90;72.40
12847;DHT22;6492;48.128;8.320;2023-05-16T04:06:18;7.80;72.20
12847;DHT22;6492;48.128;8.320;2023-05-16T04:10:22;7.90;72.40
12847;DHT22;6492;48.128;8.320;2023-05-16T04:14:24;7.90;72.20
12847;DHT22;6492;48.128;8.320;2023-05-16T04:23:01;7.90;72.30
12847;DHT22;6492;48.128;8.320;2023-05-16T04:27:05;8.00;72.30
12847;DHT22;6492;48.128;8.320;2023-05-16T04:31:15;8.00;72.20
12847;DHT22;6492;48.128;8.320;2023-05-16T04:35:17;8.10;72.00
12847;DHT22;6492;48.128;8.320;2023-05-16T04:39:19;8.00;71.60
12847;DHT22;6492;48.128;8.320;2023-05-16T04:43:22;8.10;71.50
12847;DHT22;6492;48.128;8.320;2023-05-16T04:47:24;8.00;71.40
12847;DHT22;6492;48.128;8.320;2023-05-16T04:51:26;8.10;71.70
12847;DHT22;6492;48.128;8.320;2023-05-16T04:55:28;8.10;71.80
12847;DHT22;6492;48.128;8.320;2023-05-16T04:59:31;8.10;71.40
12847;DHT22;6492;48.128;8.320;2023-05-16T05:03:33;8.10;71.10
12847;DHT22;6492;48.128;8.320;2023-05-16T05:07:35;8.10;71.00
12847;DHT22;6492;48.128;8.320;2023-05-16T05:11:37;8.10;71.10
12847;DHT22;6492;48.128;8.320;2023-05-16T05:15:40;8.10;71.10
12847;DHT22;6492;48.128;8.320;2023-05-16T05:19:42;8.10;71.20
12847;DHT22;6492;48.128;8.320;2023-05-16T05:23:45;8.10;71.10
12847;DHT22;6492;48.128;8.320;2023-05-16T05:27:49;8.10;71.20
12847;DHT22;6492;48.128;8.320;2023-05-16T05:32:00;8.10;71.10
12847;DHT22;6492;48.128;8.320;2023-05-16T05:36:15;8.00;71.40
12847;DHT22;6492;48.128;8.320;2023-05-16T05:40:26;8.00;71.60
12847;DHT22;6492;48.128;8.320;2023-05-16T05:44:28;8.00;71.90
12847;DHT22;6492;48.128;8.320;2023-05-16T05:48:31;8.00;72.20
12847;DHT22;6492;48.128;8.320;2023-05-16T05:52:33;8.00;72.40
12847;DHT22;6492;48.128;8.320;2023-05-16T05:56:35;7.90;72.70
12847;DHT22;6492;48.128;8.320;2023-05-16T06:00:37;7.90;73.20
12847;DHT22;6492;48.128;8.320;2023-05-16T06:05:14;7.90;73.80
12847;DHT22;6492;48.128;8.320;2023-05-16T06:09:16;7.90;74.20
12847;DHT22;6492;48.128;8.320;2023-05-16T06:13:18;7.90;74.70
12847;DHT22;6492;48.128;8.320;2023-05-16T06:17:20;7.90;74.50
12847;DHT22;6492;48.128;8.320;2023-05-16T06:21:23;7.90;74.80
12847;DHT22;6492;48.128;8.320;2023-05-16T06:25:25;7.90;75.10
12847;DHT22;6492;48.128;8.320;2023-05-16T06:29:27;8.00;75.40
12847;DHT22;6492;48.128;8.320;2023-05-16T06:33:29;8.00;75.30
12847;DHT22;6492;48.128;8.320;2023-05-16T06:37:39;8.00;74.60
12847;DHT22;6492;48.128;8.320;2023-05-16T06:41:41;8.00;74.80
12847;DHT22;6492;48.128;8.320;2023-05-16T06:45:43;8.00;74.80
12847;DHT22;6492;48.128;8.320;2023-05-16T06:49:46;8.10;74.80
12847;DHT22;6492;48.128;8.320;2023-05-16T06:53:49;8.20;74.70
12847;DHT22;6492;48.128;8.320;2023-05-16T06:57:51;8.30;74.30
12847;DHT22;6492;48.128;8.320;2023-05-16T07:01:53;8.30;73.20
12847;DHT22;6492;48.128;8.320;2023-05-16T07:05:55;8.20;71.70
12847;DHT22;6492;48.128;8.320;2023-05-16T07:09:58;8.30;71.80
12847;DHT22;6492;48.128;8.320;2023-05-16T07:14:00;8.20;70.60
12847;DHT22;6492;48.128;8.320;2023-05-16T07:18:02;8.20;70.40
12847;DHT22;6492;48.128;8.320;2023-05-16T07:22:04;8.20;70.10
12847;DHT22;6492;48.128;8.320;2023-05-16T07:26:32;8.20;70.60
12847;DHT22;6492;48.128;8.320;2023-05-16T07:30:34;8.20;69.50
12847;DHT22;6492;48.128;8.320;2023-05-16T07:34:36;8.20;69.90
12847;DHT22;6492;48.128;8.320;2023-05-16T07:38:38;8.20;70.20
12847;DHT22;6492;48.128;8.320;2023-05-16T07:42:41;8.30;70.50
12847;DHT22;6492;48.128;8.320;2023-05-16T07:46:43;8.30;70.40
12847;DHT22;6492;48.128;8.320;2023-05-16T07:50:45;8.30;70.00
12847;DHT22;6492;48.128;8.320;2023-05-16T07:54:47;8.30;70.50
12847;DHT22;6492;48.128;8.320;2023-05-16T07:58:50;8.30;69.40
12847;DHT22;6492;48.128;8.320;2023-05-16T08:02:53;8.40;69.70
12847;DHT22;6492;48.128;8.320;2023-05-16T08:06:54;8.40;68.60
12847;DHT22;6492;48.128;8.320;2023-05-16T08:10:56;8.40;67.40
12847;DHT22;6492;48.128;8.320;2023-05-16T08:14:59;8.40;67.50
12847;DHT22;6492;48.128;8.320;2023-05-16T08:19:01;8.40;66.60
12847;DHT22;6492;48.128;8.320;2023-05-16T08:23:03;8.40;65.90
12847;DHT22;6492;48.128;8.320;2023-05-16T08:27:05;8.30;65.90
12847;DHT22;6492;48.128;8.320;2023-05-16T08:31:09;8.30;66.30
12847;DHT22;6492;48.128;8.320;2023-05-16T08:35:11;8.30;67.00
12847;DHT22;6492;48.128;8.320;2023-05-16T08:39:13;8.30;68.00
12847;DHT22;6492;48.128;8.320;2023-05-16T08:43:15;8.30;67.50
12847;DHT22;6492;48.128;8.320;2023-05-16T08:47:19;8.30;67.80
12847;DHT22;6492;48.128;8.320;2023-05-16T08:51:24;8.40;67.70
12847;DHT22;6492;48.128;8.320;2023-05-16T08:55:27;8.40;67.60
12847;DHT22;6492;48.128;8.320;2023-05-16T08:59:29;8.40;67.10
12847;DHT22;6492;48.128;8.320;2023-05-16T09:03:33;8.60;67.70
12847;DHT22;6492;48.128;8.320;2023-05-16T09:07:35;8.70;65.90
12847;DHT22;6492;48.128;8.320;2023-05-16T09:11:37;8.90;66.00
12847;DHT22;6492;48.128;8.320;2023-05-16T09:15:39;9.10;65.50
12847;DHT22;6492;48.128;8.320;2023-05-16T09:19:43;9.10;62.20
12847;DHT22;6492;48.128;8.320;2023-05-16T09:23:47;9.10;60.60
12847;DHT22;6492;48.128;8.320;2023-05-16T09:27:51;9.30;60.40
12847;DHT22;6492;48.128;8.320;2023-05-16T09:32:04;9.60;59.50
12847;DHT22;6492;48.128;8.320;2023-05-16T09:36:08;9.60;55.20
12847;DHT22;6492;48.128;8.320;2023-05-16T09:40:10;9.70;53.70
12847;DHT22;6492;48.128;8.320;2023-05-16T09:44:12;9.60;51.30
12847;DHT22;6492;48.128;8.320;2023-05-16T09:48:15;9.30;50.60
12847;DHT22;6492;48.128;8.320;2023-05-16T09:52:18;9.20;52.20
12847;DHT22;6492;48.128;8.320;2023-05-16T09:56:20;9.10;52.70
12847;DHT22;6492;48.128;8.320;2023-05-16T10:00:28;8.90;53.50
12847;DHT22;6492;48.128;8.320;2023-05-16T10:04:30;8.70;54.40
12847;DHT22;6492;48.128;8.320;2023-05-16T10:08:34;8.50;55.30
12847;DHT22;6492;48.128;8.320;2023-05-16T10:12:37;8.40;56.90
12847;DHT22;6492;48.128;8.320;2023-05-16T10:16:42;8.40;58.80
12847;DHT22;6492;48.128;8.320;2023-05-16T10:20:46;8.40;60.60
12847;DHT22;6492;48.128;8.320;2023-05-16T10:24:55;8.50;62.10
12847;DHT22;6492;48.128;8.320;2023-05-16T10:28:59;8.60;62.40
12847;DHT22;6492;48.128;8.320;2023-05-16T10:33:02;8.60;60.60
12847;DHT22;6492;48.128;8.320;2023-05-16T10:37:07;8.70;61.90
12847;DHT22;6492;48.128;8.320;2023-05-16T10:41:12;8.80;59.90
12847;DHT22;6492;48.128;8.320;2023-05-16T10:45:18;8.90;59.60
12847;DHT22;6492;48.128;8.320;2023-05-16T10:49:21;9.00;59.60
12847;DHT22;6492;48.128;8.320;2023-05-16T10:53:29;9.00;59.40
12847;DHT22;6492;48.128;8.320;2023-05-16T10:57:33;9.00;57.50
12847;DHT22;6492;48.128;8.320;2023-05-16T11:01:36;8.80;55.80
12847;DHT22;6492;48.128;8.320;2023-05-16T11:06:11;8.70;58.50
12847;DHT22;6492;48.128;8.320;2023-05-16T11:10:15;8.80;59.90
12847;DHT22;6492;48.128;8.320;2023-05-16T11:14:20;8.80;58.60
12847;DHT22;6492;48.128;8.320;2023-05-16T11:18:22;8.80;58.60
12847;DHT22;6492;48.128;8.320;2023-05-16T11:22:25;8.90;58.40
12847;DHT22;6492;48.128;8.320;2023-05-16T11:26:27;9.00;59.30
12847;DHT22;6492;48.128;8.320;2023-05-16T11:30:30;9.10;58.40
12847;DHT22;6492;48.128;8.320;2023-05-16T11:34:35;9.10;57.00
12847;DHT22;6492;48.128;8.320;2023-05-16T11:38:39;9.30;57.10
12847;DHT22;6492;48.128;8.320;2023-05-16T11:42:44;9.30;56.70
12847;DHT22;6492;48.128;8.320;2023-05-16T11:46:48;9.30;55.90
12847;DHT22;6492;48.128;8.320;2023-05-16T11:50:50;9.50;55.10
12847;DHT22;6492;48.128;8.320;2023-05-16T11:54:54;9.70;56.80
12847;DHT22;6492;48.128;8.320;2023-05-16T11:58:58;9.90;52.90
12847;DHT22;6492;48.128;8.320;2023-05-16T12:03:02;9.90;49.90
12847;DHT22;6492;48.128;8.320;2023-05-16T12:07:04;10.10;48.40
12847;DHT22;6492;48.128;8.320;2023-05-16T12:11:06;10.50;48.70
12847;DHT22;6492;48.128;8.320;2023-05-16T12:15:10;10.70;42.50
12847;DHT22;6492;48.128;8.320;2023-05-16T12:19:15;10.40;41.90
12847;DHT22;6492;48.128;8.320;2023-05-16T12:23:16;9.90;41.20
12847;DHT22;6492;48.128;8.320;2023-05-16T12:27:21;9.60;44.20
12847;DHT22;6492;48.128;8.320;2023-05-16T12:31:23;9.40;48.00
12847;DHT22;6492;48.128;8.320;2023-05-16T12:35:30;9.20;47.50
12847;DHT22;6492;48.128;8.320;2023-05-16T12:39:36;9.00;47.60
12847;DHT22;6492;48.128;8.320;2023-05-16T12:43:38;8.90;51.10
12847;DHT22;6492;48.128;8.320;2023-05-16T12:47:44;9.50;57.20
12847;DHT22;6492;48.128;8.320;2023-05-16T12:51:52;10.30;51.50
12847;DHT22;6492;48.128;8.320;2023-05-16T12:55:54;10.60;43.50
12847;DHT22;6492;48.128;8.320;2023-05-16T12:59:56;10.60;42.00
12847;DHT22;6492;48.128;8.320;2023-05-16T13:03:57;10.50;40.40
12847;DHT22;6492;48.128;8.320;2023-05-16T13:08:01;10.40;39.20
12847;DHT22;6492;48.128;8.320;2023-05-16T13:12:03;10.30;40.80
12847;DHT22;6492;48.128;8.320;2023-05-16T13:16:05;10.30;38.00
12847;DHT22;6492;48.128;8.320;2023-05-16T13:20:08;10.00;39.40
12847;DHT22;6492;48.128;8.320;2023-05-16T13:24:14;9.80;41.20
12847;DHT22;6492;48.128;8.320;2023-05-16T13:28:16;9.60;41.80
12847;DHT22;6492;48.128;8.320;2023-05-16T13:32:18;9.50;43.50
12847;DHT22;6492;48.128;8.320;2023-05-16T13:36:19;9.60;45.20
12847;DHT22;6492;48.128;8.320;2023-05-16T13:40:23;9.60;44.30
12847;DHT22;6492;48.128;8.320;2023-05-16T13:44:25;9.60;42.90
12847;DHT22;6492;48.128;8.320;2023-05-16T13:48:26;9.40;43.10
12847;DHT22;6492;48.128;8.320;2023-05-16T13:52:28;9.10;43.60
12847;DHT22;6492;48.128;8.320;2023-05-16T13:56:31;8.90;46.00
12847;DHT22;6492;48.128;8.320;2023-05-16T14:00:33;8.60;48.20
12847;DHT22;6492;48.128;8.320;2023-05-16T14:04:35;8.50;51.50
12847;DHT22;6492;48.128;8.320;2023-05-16T14:08:37;8.50;51.20
12847;DHT22;6492;48.128;8.320;2023-05-16T14:12:40;8.50;53.10
12847;DHT22;6492;48.128;8.320;2023-05-16T14:16:42;8.50;53.90
12847;DHT22;6492;48.128;8.320;2023-05-16T14:20:45;8.40;54.20
12847;DHT22;6492;48.128;8.320;2023-05-16T14:25:05;8.40;53.60
12847;DHT22;6492;48.128;8.320;2023-05-16T14:29:08;8.40;51.90
12847;DHT22;6492;48.128;8.320;2023-05-16T14:33:10;8.50;54.00
12847;DHT22;6492;48.128;8.320;2023-05-16T14:37:37;8.70;52.60
12847;DHT22;6492;48.128;8.320;2023-05-16T14:41:39;8.90;50.70
12847;DHT22;6492;48.128;8.320;2023-05-16T14:45:42;8.90;48.50
12847;DHT22;6492;48.128;8.320;2023-05-16T14:49:44;8.70;47.50
12847;DHT22;6492;48.128;8.320;2023-05-16T14:58:27;8.30;48.80
12847;DHT22;6492;48.128;8.320;2023-05-16T15:02:31;8.20;50.20
12847;DHT22;6492;48.128;8.320;2023-05-16T15:07:01;8.00;51.50
12847;DHT22;6492;48.128;8.320;2023-05-16T15:11:03;7.90;52.60
12847;DHT22;6492;48.128;8.320;2023-05-16T15:15:06;7.70;54.50
12847;DHT22;6492;48.128;8.320;2023-05-16T15:19:22;7.60;55.60
12847;DHT22;6492;48.128;8.320;2023-05-16T15:23:24;7.60;55.90
12847;DHT22;6492;48.128;8.320;2023-05-16T15:27:34;7.50;55.90
12847;DHT22;6492;48.128;8.320;2023-05-16T15:31:39;7.50;56.20
12847;DHT22;6492;48.128;8.320;2023-05-16T15:35:42;7.40;55.80
12847;DHT22;6492;48.128;8.320;2023-05-16T15:39:44;7.50;56.90
12847;DHT22;6492;48.128;8.320;2023-05-16T15:43:46;7.50;56.20
12847;DHT22;6492;48.128;8.320;2023-05-16T15:47:47;7.60;56.90
12847;DHT22;6492;48.128;8.320;2023-05-16T15:52:02;7.60;55.70
12847;DHT22;6492;48.128;8.320;2023-05-16T15:56:05;7.50;55.40
12847;DHT22;6492;48.128;8.320;2023-05-16T16:00:15;7.50;55.70
12847;DHT22;6492;48.128;8.320;2023-05-16T16:04:32;7.50;54.70
12847;DHT22;6492;48.128;8.320;2023-05-16T16:08:35;7.40;54.90
12847;DHT22;6492;48.128;8.320;2023-05-16T16:12:38;7.30;55.70
12847;DHT22;6492;48.128;8.320;2023-05-16T16:16:40;7.20;54.90
12847;DHT22;6492;48.128;8.320;2023-05-16T16:20:42;7.20;55.60
12847;DHT22;6492;48.128;8.320;2023-05-16T16:24:46;7.10;56.70
12847;DHT22;6492;48.128;8.320;2023-05-16T16:28:48;7.10;57.30
12847;DHT22;6492;48.128;8.320;2023-05-16T16:32:50;7.10;57.80
12847;DHT22;6492;48.128;8.320;2023-05-16T16:36:52;7.10;57.60
12847;DHT22;6492;48.128;8.320;2023-05-16T16:41:06;7.00;56.60
12847;DHT22;6492;48.128;8.320;2023-05-16T16:45:09;6.90;57.50
12847;DHT22;6492;48.128;8.320;2023-05-16T16:49:11;6.80;58.70
12847;DHT22;6492;48.128;8.320;2023-05-16T16:53:16;6.70;60.20
12847;DHT22;6492;48.128;8.320;2023-05-16T16:57:20;6.50;59.90
12847;DHT22;6492;48.128;8.320;2023-05-16T17:01:21;6.40;60.90
12847;DHT22;6492;48.128;8.320;2023-05-16T17:05:23;6.40;61.90
12847;DHT22;6492;48.128;8.320;2023-05-16T17:09:31;6.20;61.00
12847;DHT22;6492;48.128;8.320;2023-05-16T17:13:39;6.20;62.40
12847;DHT22;6492;48.128;8.320;2023-05-16T17:17:41;6.10;61.90
12847;DHT22;6492;48.128;8.320;2023-05-16T17:21:43;6.10;61.40
12847;DHT22;6492;48.128;8.320;2023-05-16T17:25:45;6.00;58.90
12847;DHT22;6492;48.128;8.320;2023-05-16T17:30:11;6.00;58.00
12847;DHT22;6492;48.128;8.320;2023-05-16T17:34:12;6.00;56.40
12847;DHT22;6492;48.128;8.320;2023-05-16T17:38:28;5.90;56.90
12847;DHT22;6492;48.128;8.320;2023-05-16T17:42:30;5.90;55.60
12847;DHT22;6492;48.128;8.320;2023-05-16T17:46:39;5.90;55.10
12847;DHT22;6492;48.128;8.320;2023-05-16T17:50:42;5.80;54.80
12847;DHT22;6492;48.128;8.320;2023-05-16T17:54:44;5.80;53.80
12847;DHT22;6492;48.128;8.320;2023-05-16T17:58:45;5.70;52.30
12847;DHT22;6492;48.128;8.320;2023-05-16T18:03:14;5.70;52.30
12847;DHT22;6492;48.128;8.320;2023-05-16T18:07:41;5.60;51.80
12847;DHT22;6492;48.128;8.320;2023-05-16T18:11:51;5.60;50.60
12847;DHT22;6492;48.128;8.320;2023-05-16T18:20:44;5.50;50.80
12847;DHT22;6492;48.128;8.320;2023-05-16T18:25:02;5.50;50.80
12847;DHT22;6492;48.128;8.320;2023-05-16T18:29:04;5.50;50.30
12847;DHT22;6492;48.128;8.320;2023-05-16T18:33:06;5.50;50.60
12847;DHT22;6492;48.128;8.320;2023-05-16T18:37:10;5.50;49.70
12847;DHT22;6492;48.128;8.320;2023-05-16T18:41:12;5.50;49.90
12847;DHT22;6492;48.128;8.320;2023-05-16T18:45:13;5.50;50.10
12847;DHT22;6492;48.128;8.320;2023-05-16T18:49:15;5.40;50.00
12847;DHT22;6492;48.128;8.320;2023-05-16T18:53:21;5.40;50.20
12847;DHT22;6492;48.128;8.320;2023-05-16T18:57:26;5.40;50.40
12847;DHT22;6492;48.128;8.320;2023-05-16T19:01:58;5.40;49.90
12847;DHT22;6492;48.128;8.320;2023-05-16T19:06:00;5.30;50.30
12847;DHT22;6492;48.128;8.320;2023-05-16T19:10:06;5.30;51.10
12847;DHT22;6492;48.128;8.320;2023-05-16T19:14:24;5.20;51.30
12847;DHT22;6492;48.128;8.320;2023-05-16T19:18:27;5.20;51.40
12847;DHT22;6492;48.128;8.320;2023-05-16T19:22:29;5.20;51.30
12847;DHT22;6492;48.128;8.320;2023-05-16T19:26:32;5.20;51.40
12847;DHT22;6492;48.128;8.320;2023-05-16T19:30:34;5.20;51.30
12847;DHT22;6492;48.128;8.320;2023-05-16T19:34:36;5.10;51.00
12847;DHT22;6492;48.128;8.320;2023-05-16T19:38:38;5.00;51.10
12847;DHT22;6492;48.128;8.320;2023-05-16T19:42:41;4.90;51.40
12847;DHT22;6492;48.128;8.320;2023-05-16T19:46:45;4.80;51.70
12847;DHT22;6492;48.128;8.320;2023-05-16T19:50:47;4.70;51.80
12847;DHT22;6492;48.128;8.320;2023-05-16T19:54:58;4.50;52.90
12847;DHT22;6492;48.128;8.320;2023-05-16T19:59:09;4.40;53.70
12847;DHT22;6492;48.128;8.320;2023-05-16T20:03:11;4.30;54.80
12847;DHT22;6492;48.128;8.320;2023-05-16T20:07:13;4.30;55.50
12847;DHT22;6492;48.128;8.320;2023-05-16T20:11:15;4.20;55.90
12847;DHT22;6492;48.128;8.320;2023-05-16T20:15:24;4.20;56.20
12847;DHT22;6492;48.128;8.320;2023-05-16T20:19:26;4.10;56.10
12847;DHT22;6492;48.128;8.320;2023-05-16T20:23:30;4.10;56.30
12847;DHT22;6492;48.128;8.320;2023-05-16T20:27:43;4.10;55.80
12847;DHT22;6492;48.128;8.320;2023-05-16T20:31:46;4.10;55.60
12847;DHT22;6492;48.128;8.320;2023-05-16T20:35:48;4.00;56.10
12847;DHT22;6492;48.128;8.320;2023-05-16T20:39:50;4.00;55.30
12847;DHT22;6492;48.128;8.320;2023-05-16T20:43:52;4.00;56.20
12847;DHT22;6492;48.128;8.320;2023-05-16T20:47:55;3.90;55.70
12847;DHT22;6492;48.128;8.320;2023-05-16T20:51:58;4.00;55.50
12847;DHT22;6492;48.128;8.320;2023-05-16T20:56:00;3.90;54.60
12847;DHT22;6492;48.128;8.320;2023-05-16T21:00:02;3.80;56.00
12847;DHT22;6492;48.128;8.320;2023-05-16T21:04:15;3.80;55.20
12847;DHT22;6492;48.128;8.320;2023-05-16T21:08:17;3.70;55.40
12847;DHT22;6492;48.128;8.320;2023-05-16T21:12:19;3.50;56.10
12847;DHT22;6492;48.128;8.320;2023-05-16T21:16:20;3.50;57.30
12847;DHT22;6492;48.128;8.320;2023-05-16T21:20:23;3.40;58.30
12847;DHT22;6492;48.128;8.320;2023-05-16T21:24:27;3.40;59.60
12847;DHT22;6492;48.128;8.320;2023-05-16T21:28:29;3.40;59.30
12847;DHT22;6492;48.128;8.320;2023-05-16T21:32:31;3.30;60.10
12847;DHT22;6492;48.128;8.320;2023-05-16T21:36:47;3.30;60.90
12847;DHT22;6492;48.128;8.320;2023-05-16T21:40:49;3.20;60.90
12847;DHT22;6492;48.128;8.320;2023-05-16T21:44:51;3.10;61.60
12847;DHT22;6492;48.128;8.320;2023-05-16T21:48:53;3.10;62.30
12847;DHT22;6492;48.128;8.320;2023-05-16T21:52:56;3.00;62.90
12847;DHT22;6492;48.128;8.320;2023-05-16T21:56:58;2.90;63.20
12847;DHT22;6492;48.128;8.320;2023-05-16T22:01:00;2.80;63.80
12847;DHT22;6492;48.128;8.320;2023-05-16T22:05:02;2.90;64.70
12847;DHT22;6492;48.128;8.320;2023-05-16T22:09:06;2.70;64.40
12847;DHT22;6492;48.128;8.320;2023-05-16T22:13:08;2.60;64.60
12847;DHT22;6492;48.128;8.320;2023-05-16T22:17:10;2.50;64.50
12847;DHT22;6492;48.128;8.320;2023-05-16T22:21:11;2.50;65.20
12847;DHT22;6492;48.128;8.320;2023-05-16T22:25:16;2.50;65.20
12847;DHT22;6492;48.128;8.320;2023-05-16T22:29:18;2.50;65.10
12847;DHT22;6492;48.128;8.320;2023-05-16T22:33:20;2.40;64.60
12847;DHT22;6492;48.128;8.320;2023-05-16T22:37:23;2.30;64.90
12847;DHT22;6492;48.128;8.320;2023-05-16T22:41:26;2.30;64.90
12847;DHT22;6492;48.128;8.320;2023-05-16T22:45:28;2.30;65.10
12847;DHT22;6492;48.128;8.320;2023-05-16T22:49:30;2.30;64.10
12847;DHT22;6492;48.128;8.320;2023-05-16T22:53:32;2.20;62.90
12847;DHT22;6492;48.128;8.320;2023-05-16T22:57:35;2.20;63.10
12847;DHT22;6492;48.128;8.320;2023-05-16T23:01:37;2.20;62.60
12847;DHT22;6492;48.128;8.320;2023-05-16T23:05:39;2.10;62.70
12847;DHT22;6492;48.128;8.320;2023-05-16T23:09:40;2.10;62.30
12847;DHT22;6492;48.128;8.320;2023-05-16T23:13:44;2.10;61.80
12847;DHT22;6492;48.128;8.320;2023-05-16T23:17:45;2.10;61.20
12847;DHT22;6492;48.128;8.320;2023-05-16T23:21:47;2.00;61.80
12847;DHT22;6492;48.128;8.320;2023-05-16T23:25:49;2.10;62.10
12847;DHT22;6492;48.128;8.320;2023-05-16T23:29:52;2.10;61.70
12847;DHT22;6492;48.128;8.320;2023-05-16T23:33:54;2.10;60.80
12847;DHT22;6492;48.128;8.320;2023-05-16T23:37:56;2.10;59.80
12847;DHT22;6492;48.128;8.320;2023-05-16T23:41:59;2.10;59.20
12847;DHT22;6492;48.128;8.320;2023-05-16T23:46:02;2.00;58.60
12847;DHT22;6492;48.128;8.320;2023-05-16T23:50:05;1.90;59.50
12847;DHT22;6492;48.128;8.320;2023-05-16T23:54:07;1.90;59.50
12847;DHT22;6492;48.128;8.320;2023-05-16T23:58:09;1.90;59.30
